createdAt,value
2022-09-01T00:00:01.829Z,136.18
2022-09-01T00:02:28.869Z,133.25
2022-09-01T00:04:55.471Z,131.15
2022-09-01T00:07:21.770Z,129.93
2022-09-01T00:09:48.062Z,130.13
2022-09-01T00:12:14.515Z,131.02
2022-09-01T00:14:41.601Z,130.55
2022-09-01T00:17:08.089Z,127.28
2022-09-01T00:19:34.926Z,124.78
2022-09-01T00:22:01.505Z,123.25
2022-09-01T00:24:27.894Z,118.10
2022-09-01T00:26:55.108Z,119.85
2022-09-01T00:29:21.514Z,117.35
2022-09-01T00:31:47.922Z,119.63
2022-09-01T00:34:14.320Z,114.93
2022-09-01T00:36:40.747Z,113.97
2022-09-01T00:39:07.123Z,112.28
2022-09-01T00:41:39.768Z,114.80
2022-09-01T00:44:06.441Z,109.70
2022-09-01T00:46:32.927Z,109.03
2022-09-01T00:49:01.871Z,110.07
2022-09-01T00:51:28.222Z,108.00
2022-09-01T00:53:54.832Z,106.60
2022-09-01T00:56:21.194Z,107.90
2022-09-01T00:58:47.509Z,104.57
2022-09-01T01:01:13.861Z,104.38
2022-09-01T01:03:40.725Z,102.10
2022-09-01T01:06:07.022Z,100.70
2022-09-01T01:08:33.394Z,103.32
2022-09-01T01:10:59.928Z,103.57
2022-09-01T01:13:26.372Z,101.03
2022-09-01T01:15:52.718Z,101.45
2022-09-01T01:18:23.454Z,101.15
2022-09-01T01:20:50.241Z,99.22
2022-09-01T01:23:16.532Z,97.28
2022-09-01T01:25:44.233Z,98.03
2022-09-01T01:28:10.543Z,96.20
2022-09-01T01:30:37.177Z,96.40
2022-09-01T01:33:03.599Z,93.38
2022-09-01T01:35:29.930Z,99.10
2022-09-01T01:37:56.366Z,95.20
2022-09-01T01:40:22.834Z,92.00
2022-09-01T01:42:49.561Z,94.22
2022-09-01T01:45:16.113Z,90.70
2022-09-01T01:47:42.509Z,90.07
2022-09-01T01:50:09.053Z,91.28
2022-09-01T01:52:35.339Z,89.55
2022-09-01T01:55:05.328Z,82.88
2022-09-01T01:57:31.734Z,85.93
2022-09-01T01:59:58.081Z,84.00
2022-09-01T02:02:24.513Z,83.43
2022-09-01T02:04:50.990Z,85.13
2022-09-01T02:07:17.826Z,88.05
2022-09-01T02:09:44.224Z,80.95
2022-09-01T02:12:10.601Z,84.35
2022-09-01T02:14:37.054Z,82.90
2022-09-01T02:17:03.429Z,80.25
2022-09-01T02:19:29.889Z,77.53
2022-09-01T02:21:56.275Z,79.55
2022-09-01T02:24:22.665Z,79.75
2022-09-01T02:26:48.974Z,78.65
2022-09-01T02:29:15.349Z,78.70
2022-09-01T02:31:42.374Z,76.00
2022-09-01T02:34:08.779Z,78.80
2022-09-01T02:36:35.173Z,77.68
2022-09-01T02:39:01.531Z,79.05
2022-09-01T02:41:27.976Z,76.13
2022-09-01T02:43:54.524Z,75.13
2022-09-01T02:46:20.912Z,75.65
2022-09-01T02:48:47.388Z,71.57
2022-09-01T02:51:13.646Z,69.45
2022-09-01T02:53:39.962Z,70.75
2022-09-01T02:56:06.490Z,69.30
2022-09-01T02:58:32.899Z,68.10
2022-09-01T03:01:00.036Z,67.97
2022-09-01T03:03:26.833Z,65.40
2022-09-01T03:05:53.365Z,65.40
2022-09-01T03:08:19.864Z,63.63
2022-09-01T03:10:46.796Z,67.57
2022-09-01T03:13:13.309Z,65.88
2022-09-01T03:15:39.632Z,66.20
2022-09-01T03:18:06.054Z,64.20
2022-09-01T03:20:32.488Z,61.28
2022-09-01T03:22:58.828Z,60.15
2022-09-01T03:25:25.157Z,59.80
2022-09-01T03:27:51.706Z,62.40
2022-09-01T03:30:18.034Z,59.58
2022-09-01T03:32:46.191Z,56.90
2022-09-01T03:35:12.549Z,57.63
2022-09-01T03:37:38.929Z,57.20
2022-09-01T03:40:05.311Z,56.13
2022-09-01T03:42:31.630Z,55.60
2022-09-01T03:44:58.027Z,56.35
2022-09-01T03:47:24.469Z,57.30
2022-09-01T03:49:50.914Z,53.33
2022-09-01T03:52:17.368Z,53.72
2022-09-01T03:54:43.800Z,50.58
2022-09-01T03:57:10.105Z,52.00
2022-09-01T03:59:36.574Z,51.63
2022-09-01T04:02:04.216Z,52.75
2022-09-01T04:04:30.821Z,52.50
2022-09-01T04:06:57.449Z,49.05
2022-09-01T04:09:25.122Z,51.05
2022-09-01T04:11:51.500Z,48.60
2022-09-01T04:14:17.902Z,48.13
2022-09-01T04:16:44.951Z,48.20
2022-09-01T04:19:11.368Z,47.75
2022-09-01T04:21:37.634Z,48.38
2022-09-01T04:24:03.965Z,47.33
2022-09-01T04:26:30.266Z,44.90
2022-09-01T04:28:57.455Z,44.22
2022-09-01T04:31:24.007Z,44.70
2022-09-01T04:33:50.604Z,45.03
2022-09-01T04:36:17.105Z,40.47
2022-09-01T04:38:43.557Z,40.60
2022-09-01T04:41:09.816Z,41.45
2022-09-01T04:43:36.177Z,40.47
2022-09-01T04:46:02.788Z,39.55
2022-09-01T04:48:29.621Z,40.88
2022-09-01T04:50:56.459Z,38.80
2022-09-01T04:53:22.801Z,40.35
2022-09-01T04:55:54.816Z,39.63
2022-09-01T04:58:21.222Z,38.38
2022-09-01T05:00:47.737Z,38.40
2022-09-01T05:03:14.130Z,39.60
2022-09-01T05:05:40.508Z,39.78
2022-09-01T05:08:06.908Z,37.83
2022-09-01T05:10:33.209Z,38.10
2022-09-01T05:12:59.533Z,37.90
2022-09-01T05:15:25.878Z,38.00
2022-09-01T05:17:52.441Z,37.33
2022-09-01T05:20:20.698Z,35.10
2022-09-01T05:22:47.057Z,36.15
2022-09-01T05:25:13.435Z,35.55
2022-09-01T05:27:39.855Z,36.65
2022-09-01T05:30:06.361Z,33.72
2022-09-01T05:32:32.760Z,35.65
2022-09-01T05:34:59.145Z,34.08
2022-09-01T05:37:25.553Z,35.25
2022-09-01T05:39:51.845Z,34.60
2022-09-01T05:42:18.182Z,34.40
2022-09-01T05:44:44.611Z,32.25
2022-09-01T05:47:11.030Z,33.28
2022-09-01T05:49:47.086Z,30.52
2022-09-01T05:52:13.438Z,30.25
2022-09-01T05:54:39.930Z,26.35
2022-09-01T05:57:23.768Z,26.40
2022-09-01T05:59:52.618Z,27.40
2022-09-01T06:02:19.096Z,26.83
2022-09-01T06:04:45.562Z,27.08
2022-09-01T06:07:13.642Z,25.33
2022-09-01T06:09:43.252Z,25.50
2022-09-01T06:12:13.815Z,25.40
2022-09-01T06:17:06.883Z,25.83
2022-09-01T06:19:36.974Z,25.50
2022-09-01T06:22:04.159Z,26.38
2022-09-01T06:24:30.584Z,24.95
2022-09-01T06:26:56.954Z,26.20
2022-09-01T06:29:23.356Z,26.90
2022-09-01T06:31:49.839Z,28.40
2022-09-01T06:34:16.250Z,28.05
2022-09-01T06:36:42.660Z,27.42
2022-09-01T06:39:09.029Z,30.27
2022-09-01T06:41:35.355Z,29.38
2022-09-01T06:44:01.673Z,30.35
2022-09-01T06:46:28.197Z,27.52
2022-09-01T06:48:54.683Z,30.58
2022-09-01T06:51:21.821Z,29.45
2022-09-01T06:53:49.350Z,27.67
2022-09-01T06:56:15.883Z,28.40
2022-09-01T06:58:42.274Z,29.42
2022-09-01T07:01:10.377Z,25.67
2022-09-01T07:03:39.847Z,24.53
2022-09-01T07:06:06.260Z,23.58
2022-09-01T07:08:32.987Z,25.52
2022-09-01T07:16:33.375Z,24.73
2022-09-01T07:19:02.816Z,21.33
2022-09-01T07:21:39.127Z,23.30
2022-09-01T07:24:11.089Z,25.98
2022-09-01T07:26:46.375Z,21.20
2022-09-01T07:29:13.826Z,22.08
2022-09-01T07:34:46.310Z,22.67
2022-09-01T07:45:29.366Z,23.90
2022-09-01T07:47:55.785Z,23.80
2022-09-01T07:50:39.820Z,23.30
2022-09-01T07:53:07.213Z,24.20
2022-09-01T07:55:33.584Z,24.02
2022-09-01T07:58:01.268Z,22.90
2022-09-01T08:00:31.025Z,22.30
2022-09-01T08:02:57.886Z,27.63
2022-09-01T08:05:25.035Z,28.27
2022-09-01T08:07:52.480Z,26.55
2022-09-01T08:10:20.217Z,27.30
2022-09-01T08:12:46.982Z,25.60
2022-09-01T08:18:08.730Z,29.67
2022-09-01T08:20:35.121Z,25.00
2022-09-01T08:23:01.710Z,24.73
2022-09-01T08:25:28.000Z,22.65
2022-09-01T08:27:59.801Z,25.70
2022-09-01T08:30:26.418Z,24.52
2022-09-01T08:32:53.175Z,28.48
2022-09-01T08:35:19.989Z,27.65
2022-09-01T08:37:46.384Z,26.67
2022-09-01T08:40:12.945Z,25.83
2022-09-01T08:42:39.397Z,28.40
2022-09-01T08:45:05.750Z,26.38
2022-09-01T08:47:43.703Z,20.48
2022-09-01T08:50:11.007Z,26.35
2022-09-01T08:52:37.368Z,23.08
2022-09-01T08:55:03.721Z,23.42
2022-09-01T08:57:30.088Z,25.15
2022-09-01T08:59:56.793Z,23.45
2022-09-01T09:02:23.367Z,18.40
2022-09-01T09:04:49.873Z,24.75
2022-09-01T09:07:16.176Z,22.52
2022-09-01T09:09:42.598Z,21.38
2022-09-01T09:12:08.935Z,20.83
2022-09-01T09:14:35.293Z,21.20
2022-09-01T09:17:01.971Z,18.42
2022-09-01T09:19:28.348Z,18.75
2022-09-01T09:21:54.977Z,17.25
2022-09-01T09:24:22.684Z,15.73
2022-09-01T09:26:49.362Z,18.15
2022-09-01T09:29:15.682Z,16.35
2022-09-01T09:31:42.116Z,17.52
2022-09-01T09:34:09.998Z,15.35
2022-09-01T09:36:36.422Z,19.70
2022-09-01T09:39:02.970Z,16.20
2022-09-01T09:41:30.069Z,16.48
2022-09-01T09:43:56.417Z,14.02
2022-09-01T09:46:24.542Z,15.98
2022-09-01T09:48:52.049Z,13.70
2022-09-01T09:51:18.383Z,13.60
2022-09-01T09:53:44.733Z,13.95
2022-09-01T09:56:11.071Z,14.68
2022-09-01T09:58:37.488Z,16.27
2022-09-01T10:01:05.256Z,16.38
2022-09-01T10:03:31.819Z,17.73
2022-09-01T10:05:58.215Z,15.23
2022-09-01T10:08:24.563Z,16.17
2022-09-01T10:10:58.180Z,14.73
2022-09-01T10:13:25.068Z,15.35
2022-09-01T10:15:51.670Z,15.45
2022-09-01T10:18:28.493Z,13.27
2022-09-01T10:20:55.618Z,15.18
2022-09-01T10:23:22.749Z,12.70
2022-09-01T10:25:50.236Z,10.55
2022-09-01T10:28:20.976Z,12.38
2022-09-01T10:30:47.611Z,11.73
2022-09-01T10:33:19.912Z,17.73
2022-09-01T10:35:48.179Z,23.92
2022-09-01T10:38:14.675Z,25.30
2022-09-01T10:40:43.851Z,22.45
2022-09-01T10:43:12.431Z,21.80
2022-09-01T10:45:43.145Z,21.40
2022-09-01T10:48:13.281Z,20.60
2022-09-01T10:50:39.707Z,23.27
2022-09-01T10:53:06.441Z,23.02
2022-09-01T10:55:32.907Z,23.63
2022-09-01T10:58:08.483Z,24.42
2022-09-01T11:01:10.748Z,23.13
2022-09-01T11:03:40.895Z,21.65
2022-09-01T11:06:12.310Z,20.40
2022-09-01T11:08:39.439Z,22.83
2022-09-01T11:11:05.704Z,25.00
2022-09-01T11:13:33.037Z,24.88
2022-09-01T11:16:00.746Z,30.42
2022-09-01T11:18:27.207Z,31.15
2022-09-01T11:20:53.892Z,31.48
2022-09-01T11:23:20.262Z,26.00
2022-09-01T11:25:47.441Z,28.50
2022-09-01T11:28:14.293Z,29.08
2022-09-01T11:30:40.842Z,29.17
2022-09-01T11:33:08.354Z,26.00
2022-09-01T11:35:34.901Z,36.80
2022-09-01T11:38:03.668Z,30.40
2022-09-01T11:40:32.588Z,30.55
2022-09-01T11:42:59.130Z,34.80
2022-09-01T11:45:25.918Z,30.60
2022-09-01T11:47:52.273Z,27.40
2022-09-01T11:50:18.606Z,26.20
2022-09-01T11:52:44.967Z,24.17
2022-09-01T11:55:11.265Z,24.88
2022-09-01T11:57:37.598Z,23.98
2022-09-01T12:00:03.992Z,24.95
2022-09-01T12:02:30.762Z,25.40
2022-09-01T12:04:57.294Z,25.63
2022-09-01T12:07:23.929Z,24.83
2022-09-01T12:09:50.665Z,23.50
2022-09-01T12:12:17.030Z,26.92
2022-09-01T12:15:02.363Z,25.25
2022-09-01T12:17:29.933Z,24.75
2022-09-01T12:19:56.285Z,25.92
2022-09-01T12:22:22.600Z,23.58
2022-09-01T12:24:49.118Z,24.27
2022-09-01T12:27:16.687Z,24.20
2022-09-01T12:29:43.022Z,24.83
2022-09-01T12:32:09.395Z,23.25
2022-09-01T12:34:35.823Z,20.92
2022-09-01T12:37:02.558Z,21.60
2022-09-01T12:39:29.186Z,23.73
2022-09-01T12:41:55.656Z,22.75
2022-09-01T12:44:21.989Z,22.55
2022-09-01T12:46:48.329Z,20.48
2022-09-01T12:51:46.081Z,20.95
2022-09-01T12:54:12.415Z,19.75
2022-09-01T12:56:38.762Z,19.88
2022-09-01T12:59:05.117Z,19.98
2022-09-01T13:01:31.564Z,20.60
2022-09-01T13:03:58.063Z,21.60
2022-09-01T13:06:24.494Z,21.30
2022-09-01T13:08:50.871Z,20.65
2022-09-01T13:11:17.386Z,20.00
2022-09-01T13:13:43.656Z,20.63
2022-09-01T13:16:09.980Z,18.77
2022-09-01T13:19:10.469Z,19.23
2022-09-01T13:21:22.624Z,18.00
2022-09-01T13:23:49.002Z,16.52
2022-09-01T13:26:15.320Z,18.55
2022-09-01T13:28:41.813Z,18.10
2022-09-01T13:34:11.035Z,16.92
2022-09-01T13:36:43.668Z,17.58
2022-09-01T13:39:12.345Z,16.92
2022-09-01T13:41:38.955Z,16.58
2022-09-01T13:44:05.510Z,14.80
2022-09-01T13:46:31.973Z,17.15
2022-09-01T13:49:42.143Z,16.30
2022-09-01T13:51:46.678Z,15.43
2022-09-01T13:54:12.982Z,16.73
2022-09-01T13:56:39.445Z,15.77
2022-09-01T13:59:05.902Z,14.68
2022-09-01T14:01:32.210Z,14.60
2022-09-01T14:04:00.502Z,14.30
2022-09-01T14:06:27.406Z,15.88
2022-09-01T14:08:53.789Z,17.20
2022-09-01T14:11:20.149Z,19.27
2022-09-01T14:13:46.430Z,18.83
2022-09-01T14:16:12.931Z,17.80
2022-09-01T14:18:39.552Z,19.83
2022-09-01T14:21:05.942Z,18.08
2022-09-01T14:23:32.369Z,18.33
2022-09-01T14:25:58.883Z,17.33
2022-09-01T14:28:25.430Z,16.65
2022-09-01T14:33:17.076Z,17.53
2022-09-01T14:35:43.654Z,17.60
2022-09-01T14:38:10.176Z,16.50
2022-09-01T14:40:36.944Z,17.77
2022-09-01T14:43:03.360Z,16.33
2022-09-01T14:45:29.705Z,16.35
2022-09-01T14:47:56.494Z,14.75
2022-09-01T14:50:23.386Z,14.63
2022-09-01T14:52:49.918Z,15.93
2022-09-01T14:55:16.936Z,15.85
2022-09-01T14:57:43.358Z,14.38
2022-09-01T15:00:09.871Z,16.55
2022-09-01T15:02:36.231Z,15.32
2022-09-01T15:05:02.824Z,15.13
2022-09-01T15:07:29.336Z,14.98
2022-09-01T15:09:55.707Z,15.77
2022-09-01T15:12:22.005Z,17.05
2022-09-01T15:14:48.339Z,15.43
2022-09-01T15:17:14.665Z,14.65
2022-09-01T15:19:41.476Z,13.05
2022-09-01T15:22:08.464Z,12.10
2022-09-01T15:24:34.802Z,14.32
2022-09-01T15:27:01.197Z,13.02
2022-09-01T15:29:27.663Z,13.60
2022-09-01T15:31:54.139Z,14.00
2022-09-01T15:34:20.716Z,13.35
2022-09-01T15:36:47.129Z,12.52
2022-09-01T15:39:13.474Z,12.57
2022-09-01T15:41:39.832Z,14.23
2022-09-01T15:44:06.261Z,13.73
2022-09-01T15:46:32.674Z,12.65
2022-09-01T15:48:59.164Z,13.10
2022-09-01T15:51:25.551Z,14.10
2022-09-01T15:53:51.908Z,13.15
2022-09-01T15:56:18.261Z,15.20
2022-09-01T15:59:00.212Z,13.95
2022-09-01T16:01:27.788Z,12.18
2022-09-01T16:03:54.298Z,11.68
2022-09-01T16:06:20.637Z,13.15
2022-09-01T16:08:47.772Z,11.77
2022-09-01T16:11:14.092Z,12.38
2022-09-01T16:13:40.438Z,11.35
2022-09-01T16:16:06.950Z,12.02
2022-09-01T16:18:33.562Z,10.52
2022-09-01T16:20:59.913Z,9.80
2022-09-01T16:23:26.635Z,13.13
2022-09-01T16:25:53.163Z,9.85
2022-09-01T16:28:19.439Z,9.75
2022-09-01T16:30:45.847Z,10.98
2022-09-01T16:33:12.444Z,15.73
2022-09-01T16:35:38.912Z,13.05
2022-09-01T16:38:05.242Z,5.95
2022-09-01T16:40:31.679Z,4.75
2022-09-01T16:42:58.311Z,3.80
2022-09-01T16:45:25.035Z,9.55
2022-09-01T16:47:52.983Z,3.58
2022-09-01T16:50:19.493Z,3.40
2022-09-01T16:52:45.790Z,6.25
2022-09-01T16:55:12.112Z,25.45
2022-09-01T16:57:38.371Z,44.15
2022-09-01T17:00:05.726Z,44.88
2022-09-01T17:02:32.214Z,26.05
2022-09-01T17:04:58.657Z,18.95
2022-09-01T17:07:29.447Z,12.60
2022-09-01T17:09:56.204Z,13.95
2022-09-01T17:12:22.578Z,10.07
2022-09-01T17:14:49.026Z,7.00
2022-09-01T17:17:15.414Z,6.50
2022-09-01T17:19:42.332Z,5.82
2022-09-01T17:22:08.786Z,5.75
2022-09-01T17:24:35.533Z,11.35
2022-09-01T17:27:02.761Z,10.07
2022-09-01T17:29:29.184Z,18.30
2022-09-01T17:31:55.493Z,25.80
2022-09-01T17:34:22.584Z,19.20
2022-09-01T17:36:49.152Z,15.25
2022-09-01T17:39:15.521Z,10.68
2022-09-01T17:41:41.937Z,8.68
2022-09-01T17:44:08.478Z,6.30
2022-09-01T17:46:34.877Z,5.25
2022-09-01T17:49:02.320Z,4.32
2022-09-01T17:51:29.758Z,3.88
2022-09-01T17:53:56.108Z,3.97
2022-09-01T17:56:23.560Z,17.20
2022-09-01T17:58:49.862Z,14.60
2022-09-01T18:01:16.388Z,15.00
2022-09-01T18:03:42.766Z,10.95
2022-09-01T18:06:09.211Z,8.38
2022-09-01T18:08:35.604Z,7.18
2022-09-01T18:11:02.439Z,5.72
2022-09-01T18:13:51.719Z,4.85
2022-09-01T18:16:15.242Z,5.15
2022-09-01T18:18:41.673Z,5.95
2022-09-01T18:21:08.061Z,7.90
2022-09-01T18:23:34.388Z,4.47
2022-09-01T18:26:00.925Z,4.00
2022-09-01T18:28:27.570Z,8.57
2022-09-01T18:30:54.971Z,7.53
2022-09-01T18:33:21.416Z,6.88
2022-09-01T18:35:48.113Z,8.38
2022-09-01T18:38:14.461Z,6.53
2022-09-01T18:40:40.806Z,4.07
2022-09-01T18:43:07.631Z,5.40
2022-09-01T18:45:33.992Z,4.18
2022-09-01T18:48:01.909Z,2.38
2022-09-01T18:50:28.254Z,3.40
2022-09-01T18:52:54.526Z,1.95
2022-09-01T18:55:20.998Z,4.65
2022-09-01T18:57:47.347Z,4.95
2022-09-01T19:00:18.782Z,4.97
2022-09-01T19:02:46.812Z,48.90
2022-09-01T19:05:13.530Z,99.47
2022-09-01T19:07:39.988Z,36.28
2022-09-01T19:10:06.427Z,13.38
2022-09-01T19:12:32.804Z,7.63
2022-09-01T19:14:59.152Z,4.32
2022-09-01T19:17:25.494Z,4.22
2022-09-01T19:19:51.921Z,4.55
2022-09-01T19:22:18.206Z,6.43
2022-09-01T19:24:44.531Z,11.32
2022-09-01T19:27:10.962Z,7.40
2022-09-01T19:29:37.363Z,9.05
2022-09-01T19:32:03.944Z,11.52
2022-09-01T19:34:30.308Z,19.33
2022-09-01T19:36:56.771Z,22.15
2022-09-01T19:39:23.256Z,12.02
2022-09-01T19:41:50.823Z,5.75
2022-09-01T19:44:17.241Z,5.43
2022-09-01T19:46:43.592Z,3.33
2022-09-01T19:49:10.217Z,3.47
2022-09-01T19:51:36.607Z,2.70
2022-09-01T19:54:03.260Z,5.00
2022-09-01T19:56:29.695Z,9.40
2022-09-01T19:58:56.250Z,13.45
2022-09-01T20:01:22.815Z,10.55
2022-09-01T20:03:49.318Z,8.30
2022-09-01T20:06:15.977Z,18.52
2022-09-01T20:08:43.073Z,26.40
2022-09-01T20:11:09.773Z,24.30
2022-09-01T20:13:36.174Z,26.85
2022-09-01T20:16:02.558Z,21.85
2022-09-01T20:18:28.912Z,44.50
2022-09-01T20:20:55.368Z,81.60
2022-09-01T20:23:21.942Z,195.43
2022-09-01T20:25:49.558Z,205.05
2022-09-01T20:28:15.860Z,194.60
2022-09-01T20:30:42.426Z,181.30
2022-09-01T20:33:10.126Z,171.48
2022-09-01T20:35:39.220Z,165.07
2022-09-01T20:38:06.463Z,161.25
2022-09-01T20:40:32.898Z,158.02
2022-09-01T20:42:59.335Z,159.68
2022-09-01T20:45:25.600Z,155.27
2022-09-01T20:47:52.000Z,148.82
2022-09-01T20:50:18.303Z,146.35
2022-09-01T20:52:44.607Z,143.82
2022-09-01T20:55:10.949Z,145.05
2022-09-01T20:57:37.273Z,138.65
2022-09-01T21:00:03.573Z,177.43
2022-09-01T21:02:30.111Z,235.27
2022-09-01T21:04:56.572Z,262.83
2022-09-01T21:07:22.850Z,256.30
2022-09-01T21:09:49.295Z,260.77
2022-09-01T21:12:15.590Z,259.00
2022-09-01T21:14:42.148Z,245.55
2022-09-01T21:17:08.658Z,257.00
2022-09-01T21:19:34.982Z,383.40
2022-09-01T21:22:01.336Z,441.40
2022-09-01T21:24:27.672Z,405.73
2022-09-01T21:26:54.142Z,381.17
2022-09-01T21:29:20.524Z,366.30
2022-09-01T21:31:48.483Z,359.65
2022-09-01T21:34:16.944Z,350.30
2022-09-01T21:36:43.524Z,352.75
2022-09-01T21:39:10.791Z,340.73
2022-09-01T21:41:38.913Z,331.08
2022-09-01T21:44:05.242Z,335.95
2022-09-01T21:46:31.547Z,313.60
2022-09-01T21:48:57.949Z,370.63
2022-09-01T21:51:24.522Z,527.20
2022-09-01T21:53:50.856Z,541.33
2022-09-01T21:56:17.475Z,506.40
2022-09-01T21:58:52.228Z,476.33
2022-09-01T22:01:18.644Z,461.38
2022-09-01T22:03:45.106Z,442.83
2022-09-01T22:06:11.717Z,334.88
2022-09-01T22:08:38.199Z,88.00
2022-09-01T22:11:04.541Z,314.77
2022-09-01T22:13:30.985Z,445.67
2022-09-01T22:15:57.749Z,405.40
2022-09-01T22:18:24.079Z,492.38
2022-09-01T22:20:50.416Z,469.25
2022-09-01T22:23:16.853Z,480.95
2022-09-01T22:25:43.196Z,477.17
2022-09-01T22:28:09.530Z,451.00
2022-09-01T22:30:36.038Z,447.67
2022-09-01T22:33:02.477Z,449.30
2022-09-01T22:35:29.021Z,436.95
2022-09-01T22:37:55.362Z,434.88
2022-09-01T22:40:22.898Z,431.30
2022-09-01T22:42:49.234Z,424.20
2022-09-01T22:45:15.552Z,416.13
2022-09-01T22:47:41.980Z,414.63
2022-09-01T22:50:08.383Z,398.02
2022-09-01T22:52:34.783Z,383.05
2022-09-01T22:55:01.064Z,382.80
2022-09-01T22:57:27.507Z,369.55
2022-09-01T22:59:53.864Z,374.98
2022-09-01T23:02:20.258Z,372.27
2022-09-01T23:04:46.772Z,367.05
2022-09-01T23:07:13.160Z,359.27
2022-09-01T23:09:39.483Z,350.75
2022-09-01T23:12:05.924Z,355.00
2022-09-01T23:14:32.276Z,355.88
2022-09-01T23:16:58.845Z,344.40
2022-09-01T23:19:25.270Z,341.98
2022-09-01T23:21:51.664Z,340.52
2022-09-01T23:24:19.814Z,337.90
2022-09-01T23:26:46.420Z,334.25
2022-09-01T23:29:13.080Z,328.60
2022-09-01T23:31:39.624Z,334.25
2022-09-01T23:34:06.244Z,324.88
2022-09-01T23:36:32.884Z,323.55
2022-09-01T23:38:59.301Z,319.48
2022-09-01T23:41:25.611Z,316.35
2022-09-01T23:43:51.964Z,324.40
2022-09-01T23:46:18.418Z,315.90
2022-09-01T23:48:44.813Z,304.98
2022-09-01T23:51:11.118Z,311.70
2022-09-01T23:53:37.455Z,308.10
2022-09-01T23:56:03.753Z,309.58
2022-09-01T23:58:30.058Z,301.35
